createdAt,value
2022-08-11T00:01:59.507Z,2.08
2022-08-11T00:04:34.496Z,1.90
2022-08-11T00:07:04.848Z,1.90
2022-08-11T00:09:39.657Z,1.90
2022-08-11T00:12:14.589Z,2.10
2022-08-11T00:14:42.900Z,2.25
2022-08-11T00:17:12.909Z,2.50
2022-08-11T00:20:11.732Z,2.00
2022-08-11T00:22:34.689Z,2.60
2022-08-11T00:25:12.567Z,2.00
2022-08-11T00:27:41.507Z,2.42
2022-08-11T00:30:10.363Z,1.95
2022-08-11T00:32:43.889Z,1.95
2022-08-11T00:35:52.470Z,2.10
2022-08-11T00:38:06.790Z,2.30
2022-08-11T00:40:53.082Z,1.95
2022-08-11T00:43:27.961Z,2.03
2022-08-11T00:46:26.592Z,2.30
2022-08-11T00:49:16.412Z,1.98
2022-08-11T00:52:17.958Z,2.20
2022-08-11T00:55:22.214Z,2.30
2022-08-11T00:57:51.888Z,2.10
2022-08-11T01:00:23.986Z,1.75
2022-08-11T01:03:24.967Z,2.10
2022-08-11T01:06:22.911Z,2.20
2022-08-11T01:08:50.939Z,2.05
2022-08-11T01:11:34.869Z,2.10
2022-08-11T01:14:44.538Z,2.28
2022-08-11T01:17:49.899Z,2.38
2022-08-11T01:20:45.906Z,1.70
2022-08-11T01:24:09.097Z,1.77
2022-08-11T01:26:54.071Z,1.75
2022-08-11T01:29:57.680Z,2.17
2022-08-11T01:32:33.319Z,1.65
2022-08-11T01:35:25.190Z,2.03
2022-08-11T01:38:19.694Z,2.23
2022-08-11T01:41:04.955Z,2.05
2022-08-11T01:44:12.722Z,2.08
2022-08-11T01:47:32.047Z,1.70
2022-08-11T01:50:23.890Z,2.25
2022-08-11T01:53:05.650Z,2.00
2022-08-11T01:55:49.823Z,2.03
2022-08-11T01:58:44.142Z,2.70
2022-08-11T02:01:35.958Z,2.00
2022-08-11T02:04:21.323Z,1.90
2022-08-11T02:07:12.703Z,1.80
2022-08-11T02:09:59.441Z,1.95
2022-08-11T02:12:27.498Z,1.95
2022-08-11T02:15:20.539Z,2.35
2022-08-11T02:17:56.670Z,2.15
2022-08-11T02:20:46.398Z,2.10
2022-08-11T02:58:27.373Z,2.33
2022-08-11T03:01:03.235Z,2.00
2022-08-11T03:03:51.182Z,2.05
2022-08-11T03:06:38.691Z,2.30
2022-08-11T03:09:40.319Z,2.30
2022-08-11T03:12:29.658Z,2.10
2022-08-11T03:15:23.569Z,1.90
2022-08-11T03:18:28.146Z,2.72
2022-08-11T03:21:23.585Z,2.25
2022-08-11T03:24:02.962Z,2.08
2022-08-11T03:26:43.000Z,2.03
2022-08-11T03:29:27.251Z,2.08
2022-08-11T03:32:06.115Z,1.90
2022-08-11T03:34:37.811Z,2.00
2022-08-11T03:37:16.787Z,2.00
2022-08-11T03:39:58.623Z,1.85
2022-08-11T03:42:47.761Z,2.00
2022-08-11T03:45:22.145Z,2.25
2022-08-11T03:48:04.842Z,2.25
2022-08-11T03:51:16.374Z,2.20
2022-08-11T03:54:06.810Z,2.13
2022-08-11T03:57:10.646Z,2.28
2022-08-11T04:00:15.320Z,2.33
2022-08-11T04:03:00.295Z,2.40
2022-08-11T04:06:11.754Z,2.53
2022-08-11T04:09:10.436Z,2.10
2022-08-11T04:12:47.472Z,2.45
2022-08-11T04:15:42.526Z,2.08
2022-08-11T04:18:47.028Z,2.33
2022-08-11T04:21:35.055Z,2.10
2022-08-11T04:24:50.491Z,1.90
2022-08-11T04:27:37.263Z,2.13
2022-08-11T04:30:14.934Z,2.65
2022-08-11T04:32:43.449Z,2.33
2022-08-11T04:35:35.046Z,2.53
2022-08-11T04:38:42.550Z,1.85
2022-08-11T04:41:32.928Z,2.33
2022-08-11T04:44:28.489Z,2.33
2022-08-11T04:48:01.475Z,2.17
2022-08-11T04:51:08.671Z,2.17
2022-08-11T04:54:27.839Z,1.98
2022-08-11T04:57:21.327Z,2.20
2022-08-11T05:00:26.463Z,1.95
2022-08-11T05:03:22.498Z,2.20
2022-08-11T05:05:57.717Z,2.33
2022-08-11T05:08:27.462Z,2.53
2022-08-11T05:11:12.927Z,2.25
2022-08-11T05:14:07.550Z,2.20
2022-08-11T05:17:02.933Z,2.40
2022-08-11T05:19:48.469Z,2.30
2022-08-11T05:22:38.626Z,2.33
2022-08-11T05:26:45.040Z,2.35
2022-08-11T05:28:54.064Z,2.45
2022-08-11T05:31:45.432Z,2.30
2022-08-11T05:34:40.359Z,2.83
2022-08-11T05:37:26.868Z,2.30
2022-08-11T05:40:24.315Z,2.38
2022-08-11T05:43:14.919Z,2.85
2022-08-11T05:46:03.847Z,2.78
2022-08-11T05:48:55.722Z,2.70
2022-08-11T05:51:54.938Z,3.40
2022-08-11T05:54:43.058Z,3.08
2022-08-11T05:57:48.496Z,2.40
2022-08-11T06:00:12.313Z,2.55
2022-08-11T06:02:55.083Z,2.80
2022-08-11T06:05:22.807Z,2.83
2022-08-11T06:07:57.051Z,2.90
2022-08-11T06:10:33.159Z,2.80
2022-08-11T06:13:01.718Z,2.97
2022-08-11T06:15:30.886Z,2.60
2022-08-11T06:18:00.637Z,2.58
2022-08-11T06:20:32.594Z,2.65
2022-08-11T06:23:05.359Z,2.50
2022-08-11T06:25:35.587Z,2.47
2022-08-11T06:28:07.611Z,3.47
2022-08-11T06:30:46.282Z,2.97
2022-08-11T06:33:43.861Z,2.50
2022-08-11T06:36:42.448Z,2.55
2022-08-11T06:39:24.168Z,2.70
2022-08-11T06:42:08.834Z,2.60
2022-08-11T06:44:42.664Z,2.15
2022-08-11T06:47:11.599Z,2.78
2022-08-11T06:50:02.328Z,2.75
2022-08-11T06:52:36.367Z,2.60
2022-08-11T06:55:55.764Z,2.30
2022-08-11T06:58:38.955Z,2.35
2022-08-11T07:01:13.261Z,2.58
2022-08-11T07:03:58.244Z,2.58
2022-08-11T07:07:10.432Z,2.60
2022-08-11T07:10:22.442Z,2.63
2022-08-11T07:13:45.145Z,2.60
2022-08-11T07:16:12.580Z,2.50
2022-08-11T07:19:01.145Z,3.10
2022-08-11T07:22:02.496Z,2.55
2022-08-11T07:25:03.461Z,2.33
2022-08-11T07:28:02.590Z,2.47
2022-08-11T07:30:30.798Z,2.70
2022-08-11T07:33:01.171Z,2.67
2022-08-11T07:35:33.947Z,2.35
2022-08-11T07:38:20.652Z,2.58
2022-08-11T07:40:50.752Z,2.70
2022-08-11T07:43:17.755Z,3.10
2022-08-11T07:46:05.478Z,2.90
2022-08-11T07:48:53.565Z,2.95
2022-08-11T07:51:39.508Z,2.72
2022-08-11T07:54:07.770Z,2.40
2022-08-11T07:56:55.497Z,3.03
2022-08-11T08:00:03.873Z,3.17
2022-08-11T08:02:51.514Z,3.30
2022-08-11T08:05:38.471Z,2.60
2022-08-11T08:08:26.651Z,2.97
2022-08-11T08:11:15.216Z,3.28
2022-08-11T08:14:01.609Z,3.05
2022-08-11T08:16:49.057Z,3.38
2022-08-11T08:19:18.880Z,2.95
2022-08-11T08:21:47.092Z,2.92
2022-08-11T08:24:16.482Z,3.80
2022-08-11T08:26:59.497Z,3.47
2022-08-11T08:29:53.107Z,3.13
2022-08-11T08:32:21.683Z,3.15
2022-08-11T08:34:52.889Z,3.55
2022-08-11T08:37:45.837Z,3.00
2022-08-11T08:40:09.559Z,2.78
2022-08-11T08:42:45.039Z,2.38
2022-08-11T08:45:18.311Z,2.85
2022-08-11T08:47:54.846Z,3.15
2022-08-11T08:50:46.855Z,3.25
2022-08-11T08:53:15.007Z,3.17
2022-08-11T08:55:45.527Z,2.80
2022-08-11T08:58:13.980Z,2.95
2022-08-11T09:00:44.849Z,2.67
2022-08-11T09:03:39.031Z,3.53
2022-08-11T09:05:59.680Z,3.03
2022-08-11T09:08:28.402Z,3.03
2022-08-11T09:11:15.667Z,3.05
2022-08-11T09:13:44.932Z,3.00
2022-08-11T09:16:11.989Z,3.25
2022-08-11T09:18:40.278Z,2.90
2022-08-11T09:21:07.939Z,2.97
2022-08-11T09:24:15.940Z,2.80
2022-08-11T09:27:00.151Z,2.95
2022-08-11T09:29:31.650Z,2.30
2022-08-11T09:31:59.419Z,3.10
2022-08-11T09:34:27.003Z,3.22
2022-08-11T09:37:13.472Z,3.17
2022-08-11T09:40:15.487Z,3.10
2022-08-11T09:43:01.132Z,3.13
2022-08-11T09:45:28.167Z,3.03
2022-08-11T09:48:08.110Z,2.80
2022-08-11T09:50:35.905Z,3.53
2022-08-11T09:53:36.641Z,3.40
2022-08-11T09:55:53.501Z,2.90
2022-08-11T09:58:42.697Z,2.85
2022-08-11T10:01:26.970Z,2.88
2022-08-11T10:04:16.031Z,3.10
2022-08-11T10:07:04.522Z,3.05
2022-08-11T10:09:50.299Z,3.22
2022-08-11T10:12:40.804Z,3.38
2022-08-11T10:15:31.068Z,3.13
2022-08-11T10:18:27.286Z,3.10
2022-08-11T10:21:21.059Z,3.05
2022-08-11T10:24:06.917Z,3.28
2022-08-11T10:26:53.686Z,3.08
2022-08-11T10:29:44.362Z,3.45
2022-08-11T10:32:31.906Z,3.38
2022-08-11T10:35:01.385Z,3.17
2022-08-11T10:38:08.358Z,3.78
2022-08-11T10:40:23.375Z,2.60
2022-08-11T10:43:05.429Z,2.95
2022-08-11T10:45:56.167Z,2.75
2022-08-11T10:48:25.639Z,2.97
2022-08-11T10:51:12.147Z,3.13
2022-08-11T10:54:06.714Z,3.67
2022-08-11T10:56:58.871Z,2.90
2022-08-11T10:59:29.845Z,2.88
2022-08-11T11:01:58.962Z,3.13
2022-08-11T11:04:50.784Z,3.17
2022-08-11T11:07:23.998Z,2.92
2022-08-11T11:09:58.260Z,3.92
2022-08-11T11:12:54.268Z,3.20
2022-08-11T11:15:42.088Z,2.70
2022-08-11T11:18:19.439Z,3.05
2022-08-11T11:21:08.671Z,3.17
2022-08-11T11:24:01.674Z,3.10
2022-08-11T11:26:50.329Z,2.65
2022-08-11T11:29:32.254Z,2.80
2022-08-11T11:32:33.167Z,2.80
2022-08-11T11:35:30.377Z,2.55
2022-08-11T11:38:03.571Z,2.80
2022-08-11T11:40:32.426Z,2.70
2022-08-11T11:43:00.377Z,3.03
2022-08-11T11:45:27.305Z,2.58
2022-08-11T11:47:56.504Z,2.80
2022-08-11T11:50:35.722Z,2.35
2022-08-11T11:53:05.631Z,2.53
2022-08-11T11:55:32.940Z,2.55
2022-08-11T11:58:20.213Z,2.70
2022-08-11T12:01:09.644Z,2.17
2022-08-11T12:03:37.794Z,2.60
2022-08-11T12:06:06.851Z,2.15
2022-08-11T12:08:34.191Z,2.75
2022-08-11T12:11:22.133Z,2.90
2022-08-11T12:13:51.524Z,2.47
2022-08-11T12:16:34.519Z,2.90
2022-08-11T12:19:15.159Z,2.72
2022-08-11T12:22:01.465Z,2.05
2022-08-11T12:24:51.811Z,2.25
2022-08-11T12:27:24.268Z,2.17
2022-08-11T12:30:03.044Z,2.58
2022-08-11T12:32:32.876Z,2.55
2022-08-11T12:35:01.148Z,2.50
2022-08-11T12:37:36.580Z,2.47
2022-08-11T12:40:50.002Z,2.70
2022-08-11T12:43:40.585Z,2.53
2022-08-11T12:46:32.097Z,2.92
2022-08-11T12:49:21.642Z,2.22
2022-08-11T12:52:11.977Z,2.50
2022-08-11T12:54:50.741Z,2.28
2022-08-11T12:57:49.528Z,2.30
2022-08-11T13:00:36.970Z,3.03
2022-08-11T13:03:24.929Z,2.40
2022-08-11T13:05:55.402Z,2.40
2022-08-11T13:08:27.091Z,2.70
2022-08-11T13:11:14.581Z,2.22
2022-08-11T13:13:52.919Z,2.03
2022-08-11T13:16:26.411Z,2.50
2022-08-11T13:18:53.954Z,2.67
2022-08-11T13:21:22.067Z,2.63
2022-08-11T13:24:00.843Z,2.33
2022-08-11T13:26:43.295Z,2.50
2022-08-11T13:29:26.715Z,2.33
2022-08-11T13:31:56.543Z,2.60
2022-08-11T13:34:26.598Z,2.53
2022-08-11T13:36:59.246Z,2.20
2022-08-11T13:39:28.417Z,2.50
2022-08-11T13:41:57.205Z,2.70
2022-08-11T13:44:27.600Z,2.78
2022-08-11T13:47:06.517Z,2.47
2022-08-11T13:49:37.068Z,2.50
2022-08-11T13:52:12.782Z,2.38
2022-08-11T13:54:41.278Z,2.58
2022-08-11T13:57:13.877Z,2.53
2022-08-11T14:00:09.732Z,2.60
2022-08-11T14:02:48.184Z,2.50
2022-08-11T14:05:17.908Z,2.70
2022-08-11T14:08:00.292Z,2.60
2022-08-11T14:10:30.757Z,2.40
2022-08-11T14:13:25.045Z,2.40
2022-08-11T14:15:52.781Z,2.50
2022-08-11T14:18:30.861Z,2.40
2022-08-11T14:21:19.394Z,2.20
2022-08-11T14:23:50.190Z,2.13
2022-08-11T14:26:24.072Z,2.40
2022-08-11T14:28:54.970Z,2.63
2022-08-11T14:31:25.456Z,2.50
2022-08-11T14:33:59.860Z,2.22
2022-08-11T14:36:40.539Z,2.30
2022-08-11T14:39:12.523Z,2.50
2022-08-11T14:42:10.067Z,2.10
2022-08-11T14:45:05.914Z,2.53
2022-08-11T14:47:36.349Z,2.45
2022-08-11T14:50:11.746Z,2.70
2022-08-11T14:52:44.875Z,2.15
2022-08-11T14:55:31.515Z,2.60
2022-08-11T14:57:59.351Z,2.28
2022-08-11T15:00:26.855Z,2.50
2022-08-11T15:03:10.253Z,2.53
2022-08-11T15:05:55.835Z,2.60
2022-08-11T15:08:46.202Z,2.72
2022-08-11T15:11:33.916Z,2.60
2022-08-11T15:14:02.954Z,2.58
2022-08-11T15:16:48.704Z,2.75
2022-08-11T15:19:16.398Z,2.47
2022-08-11T15:22:01.673Z,2.60
2022-08-11T15:24:30.959Z,2.65
2022-08-11T15:27:18.731Z,2.67
2022-08-11T15:30:29.874Z,2.80
2022-08-11T15:33:18.591Z,2.60
2022-08-11T15:36:04.118Z,2.38
2022-08-11T15:38:36.706Z,2.78
2022-08-11T15:41:25.743Z,2.17
2022-08-11T15:44:13.789Z,2.40
2022-08-11T15:46:50.271Z,2.63
2022-08-11T15:50:11.614Z,2.40
2022-08-11T15:52:21.920Z,2.60
2022-08-11T15:54:49.243Z,2.57
2022-08-11T15:57:40.009Z,2.53
2022-08-11T16:00:26.562Z,2.60
2022-08-11T16:02:57.054Z,2.40
2022-08-11T16:05:46.472Z,2.70
2022-08-11T16:08:16.970Z,2.40
2022-08-11T16:10:56.109Z,2.45
2022-08-11T16:13:24.838Z,2.60
2022-08-11T16:16:14.978Z,2.70
2022-08-11T16:18:56.019Z,2.42
2022-08-11T16:21:36.342Z,3.00
2022-08-11T16:27:03.823Z,2.60
2022-08-11T16:27:12.931Z,2.55
2022-08-11T16:29:44.700Z,2.80
2022-08-11T16:32:23.203Z,2.63
2022-08-11T16:35:16.217Z,2.53
2022-08-11T16:38:03.346Z,2.92
2022-08-11T16:40:32.301Z,2.60
2022-08-11T16:43:19.896Z,2.85
2022-08-11T16:46:07.783Z,2.55
2022-08-11T16:48:38.882Z,2.47
2022-08-11T16:51:11.760Z,2.92
2022-08-11T16:53:54.944Z,2.90
2022-08-11T16:56:43.892Z,3.00
2022-08-11T16:59:20.372Z,2.70
2022-08-11T17:01:58.233Z,2.67
2022-08-11T17:05:11.423Z,2.75
2022-08-11T17:08:01.275Z,3.08
2022-08-11T17:11:04.191Z,2.70
2022-08-11T17:13:42.394Z,2.40
2022-08-11T17:16:13.482Z,2.90
2022-08-11T17:18:48.251Z,2.75
2022-08-11T17:22:02.287Z,2.40
2022-08-11T17:24:31.621Z,2.70
2022-08-11T17:27:00.295Z,3.17
2022-08-11T17:29:53.533Z,3.17
2022-08-11T17:33:00.628Z,2.83
2022-08-11T17:35:38.972Z,3.00
2022-08-11T17:38:12.560Z,3.20
2022-08-11T17:41:02.952Z,2.60
2022-08-11T17:43:49.058Z,2.80
2022-08-11T17:46:36.135Z,3.10
2022-08-11T17:49:07.613Z,2.75
2022-08-11T17:51:55.563Z,2.80
2022-08-11T17:54:42.510Z,3.00
2022-08-11T17:57:30.112Z,2.58
2022-08-11T17:59:58.486Z,2.70
2022-08-11T18:03:00.272Z,2.90
2022-08-11T18:05:47.114Z,2.77
2022-08-11T18:08:34.838Z,2.90
2022-08-11T18:12:06.741Z,2.65
2022-08-11T18:14:28.467Z,3.30
2022-08-11T18:17:15.122Z,2.88
2022-08-11T18:20:00.571Z,2.25
2022-08-11T18:22:50.186Z,2.95
2022-08-11T18:25:45.243Z,2.50
2022-08-11T18:28:33.840Z,3.00
2022-08-11T18:31:23.515Z,2.75
2022-08-11T18:34:09.143Z,2.40
2022-08-11T18:37:19.967Z,2.50
2022-08-11T18:40:16.440Z,2.70
2022-08-11T18:43:05.478Z,2.70
2022-08-11T18:46:06.058Z,2.85
2022-08-11T18:48:56.270Z,2.70
2022-08-11T18:51:44.092Z,2.65
2022-08-11T18:54:31.513Z,2.45
2022-08-11T18:57:20.970Z,2.72
2022-08-11T19:00:08.603Z,2.55
2022-08-11T19:02:57.761Z,2.83
2022-08-11T19:06:31.980Z,2.63
2022-08-11T19:08:54.287Z,2.72
2022-08-11T19:11:42.677Z,3.30
2022-08-11T19:14:31.518Z,2.80
2022-08-11T19:17:44.281Z,2.95
2022-08-11T19:20:28.329Z,2.88
2022-08-11T19:23:15.733Z,2.72
2022-08-11T19:26:03.667Z,2.50
2022-08-11T19:28:50.493Z,2.60
2022-08-11T19:31:41.094Z,3.10
2022-08-11T19:34:40.710Z,2.85
2022-08-11T19:37:28.280Z,3.13
2022-08-11T19:40:27.318Z,2.60
2022-08-11T19:43:23.884Z,2.60
2022-08-11T19:46:15.709Z,2.90
2022-08-11T19:49:03.223Z,3.03
2022-08-11T19:51:53.575Z,2.95
2022-08-11T19:54:42.928Z,3.65
2022-08-11T19:57:31.684Z,3.10
2022-08-11T20:00:19.357Z,3.35
2022-08-11T20:03:09.121Z,3.55
2022-08-11T20:05:59.966Z,2.97
2022-08-11T20:08:48.287Z,3.92
2022-08-11T20:11:36.213Z,4.10
2022-08-11T20:14:22.629Z,3.53
2022-08-11T20:17:08.874Z,3.97
2022-08-11T20:19:57.373Z,3.70
2022-08-11T20:22:45.469Z,3.83
2022-08-11T20:25:31.895Z,3.53
2022-08-11T20:28:17.236Z,3.92
2022-08-11T20:31:04.311Z,4.10
2022-08-11T20:33:53.523Z,4.20
2022-08-11T20:36:39.293Z,3.88
2022-08-11T20:39:25.531Z,4.05
2022-08-11T20:42:12.508Z,4.05
2022-08-11T20:44:59.422Z,4.10
2022-08-11T20:47:56.363Z,3.70
2022-08-11T20:50:46.356Z,4.00
2022-08-11T20:53:35.592Z,3.40
2022-08-11T20:56:28.969Z,4.05
2022-08-11T20:59:21.829Z,3.97
2022-08-11T21:02:10.536Z,3.72
2022-08-11T21:05:00.211Z,4.20
2022-08-11T21:07:56.880Z,4.28
2022-08-11T21:10:51.473Z,4.25
2022-08-11T21:16:25.304Z,4.00
2022-08-11T21:19:18.529Z,3.75
2022-08-11T21:22:06.221Z,4.65
2022-08-11T21:24:52.886Z,4.13
2022-08-11T21:27:39.705Z,4.00
2022-08-11T21:30:25.812Z,3.83
2022-08-11T21:33:13.223Z,3.88
2022-08-11T21:35:59.190Z,3.97
2022-08-11T21:38:46.208Z,3.90
2022-08-11T21:41:32.756Z,3.70
2022-08-11T21:44:19.325Z,3.75
2022-08-11T21:47:05.894Z,3.75
2022-08-11T21:49:53.434Z,3.83
2022-08-11T21:52:39.759Z,4.32
2022-08-11T21:55:26.299Z,3.70
2022-08-11T21:58:14.381Z,3.25
2022-08-11T22:01:00.825Z,3.65
2022-08-11T22:03:50.377Z,3.70
2022-08-11T22:06:37.099Z,3.60
2022-08-11T22:09:22.605Z,3.88
2022-08-11T22:12:29.460Z,3.85
2022-08-11T22:15:14.456Z,4.10
2022-08-11T22:17:59.962Z,3.90
2022-08-11T22:20:46.438Z,3.63
2022-08-11T22:23:35.852Z,3.85
2022-08-11T22:26:23.153Z,3.75
2022-08-11T22:29:10.077Z,4.40
2022-08-11T22:31:56.988Z,3.88
2022-08-11T22:34:53.197Z,3.80
2022-08-11T22:37:40.717Z,4.00
2022-08-11T22:40:28.564Z,3.90
2022-08-11T22:43:14.055Z,4.20
2022-08-11T22:46:00.162Z,4.40
2022-08-11T22:48:48.906Z,4.25
2022-08-11T22:51:36.478Z,4.63
2022-08-11T22:54:23.283Z,3.80
2022-08-11T22:57:09.440Z,3.92
2022-08-11T22:59:55.875Z,3.70
2022-08-11T23:02:41.376Z,3.70
2022-08-11T23:05:28.483Z,4.05
2022-08-11T23:08:16.149Z,3.53
2022-08-11T23:11:03.145Z,3.72
2022-08-11T23:13:50.711Z,3.97
2022-08-11T23:16:38.279Z,3.70
2022-08-11T23:20:00.266Z,4.07
2022-08-11T23:22:49.075Z,3.90
2022-08-11T23:25:39.213Z,3.40
2022-08-11T23:28:26.193Z,3.50
2022-08-11T23:31:15.945Z,3.47
2022-08-11T23:34:05.527Z,4.05
2022-08-11T23:36:51.074Z,3.78
2022-08-11T23:39:36.730Z,3.40
2022-08-11T23:42:22.811Z,3.88
2022-08-11T23:45:10.064Z,3.72
2022-08-11T23:47:57.363Z,3.63
2022-08-11T23:50:43.472Z,3.60
2022-08-11T23:53:30.205Z,4.15
2022-08-11T23:56:16.363Z,3.83
2022-08-11T23:59:02.456Z,3.90
